^^
Station Historical Data
Daily Summary for July 18, 2017 Units:  Metric    English   Both
« Previous Day
Next Day »
Daily Weekly Monthly Yearly Custom
  High: Low: Average:
Temperature: 22.3 °C 3.2 °C 9.6 °C
Dew Point: -3.1 °C -7.2 °C -5.8 °C
Humidity: 47% 17% 35%
Wind Speed: 13km/h 0km/h 4.8km/h
Wind Gust: 22.5km/h - -
Wind- - NNW
Pressure: 1028.3 hPa 1023.2 hPa -
Precipitation: 0 mm    
Historical Graphs
 
 
Tabular Data for July 18, 2017
Time Temperature Dew Point Pressure Wind Wind Speed Wind Gust Humidity Rainfall Rate (Hourly) solar Conditions
00:01 8.2 °C -6.7 °C 1026.6 hPa North 11.1 km/h 14.5 km/h 34% 0 mm 0.0 W/m2
00:07 8.1 °C -6.5 °C 1026.6 hPa North 6.4 km/h 12.9 km/h 35% 0 mm 0.0 W/m2
00:16 7.9 °C -6.6 °C 1026.6 hPa Calm   11.3 km/h 35% 0 mm 0.0 W/m2
00:21 7.9 °C -6.6 °C 1026.6 hPa North 9.7 km/h 11.3 km/h 35% 0 mm 0.0 W/m2
00:31 8 °C -6.5 °C 1026.3 hPa North 11.1 km/h 12.9 km/h 35% 0 mm 0.0 W/m2
00:37 8 °C -6.5 °C 1026.3 hPa North 9.7 km/h 12.9 km/h 35% 0 mm 0.0 W/m2
00:42 8 °C -6.5 °C 1026.3 hPa North 7.9 km/h 12.9 km/h 35% 0 mm 0.0 W/m2
00:47 8.1 °C -6.5 °C 1026.3 hPa North 7.9 km/h 14.5 km/h 35% 0 mm 0.0 W/m2
00:57 8.1 °C -6.5 °C 1026.3 hPa North 9.7 km/h 14.5 km/h 35% 0 mm 0.0 W/m2
01:02 8.1 °C -6.5 °C 1026.3 hPa North 9.7 km/h 12.9 km/h 35% 0 mm 0.0 W/m2
01:07 8.1 °C -6.5 °C 1026.3 hPa North 11.1 km/h 12.9 km/h 35% 0 mm 0.0 W/m2
01:12 8.1 °C -6.5 °C 1026 hPa North 11.1 km/h 12.9 km/h 35% 0 mm 0.0 W/m2
01:17 8.1 °C -6.5 °C 1026 hPa North 7.9 km/h 12.9 km/h 35% 0 mm 0.0 W/m2
01:27 7.9 °C -6.6 °C 1026 hPa North 13 km/h 14.5 km/h 35% 0 mm 0.0 W/m2
01:32 8.1 °C -6.5 °C 1026 hPa North 9.7 km/h 14.5 km/h 35% 0 mm 0.0 W/m2
01:37 8.1 °C -6.5 °C 1026 hPa North 9.7 km/h 17.7 km/h 35% 0 mm 0.0 W/m2
01:47 8.2 °C -6.4 °C 1025.6 hPa North 6.4 km/h 11.3 km/h 35% 0 mm 0.0 W/m2
01:52 8.2 °C -6.4 °C 1025.6 hPa North 7.9 km/h 14.5 km/h 35% 0 mm 0.0 W/m2
01:57 8.1 °C -6.1 °C 1025.6 hPa North 6.4 km/h 11.3 km/h 36% 0 mm 0.0 W/m2
02:02 8.1 °C -6.5 °C 1025.6 hPa North 1.4 km/h 9.7 km/h 35% 0 mm 0.0 W/m2
02:07 7.9 °C -6.3 °C 1025.6 hPa North 1.4 km/h 9.7 km/h 36% 0 mm 0.0 W/m2
02:12 8 °C -6.2 °C 1025.6 hPa Calm   3.2 km/h 36% 0 mm 0.0 W/m2
02:17 8.1 °C -6.1 °C 1025.6 hPa North 13 km/h 14.5 km/h 36% 0 mm 0.0 W/m2
02:23 8.3 °C -6.3 °C 1025.6 hPa North 9.7 km/h 12.9 km/h 35% 0 mm 0.0 W/m2
02:33 8.3 °C -6.3 °C 1025.6 hPa Calm   11.3 km/h 35% 0 mm 0.0 W/m2
02:38 8 °C -6.5 °C 1026 hPa North 7.9 km/h 11.3 km/h 35% 0 mm 0.0 W/m2
02:43 7.8 °C -6.4 °C 1025.6 hPa North 6.4 km/h 12.9 km/h 36% 0 mm 0.0 W/m2
02:48 7.8 °C -6.4 °C 1025.6 hPa Calm   11.3 km/h 36% 0 mm 0.0 W/m2
02:54 7.7 °C -6.4 °C 1025.6 hPa Calm     36% 0 mm 0.0 W/m2
02:59 7.4 °C -6.7 °C 1026 hPa Calm     36% 0 mm 0.0 W/m2
03:04 7.3 °C -6.4 °C 1025.6 hPa North 6.4 km/h 8 km/h 37% 0 mm 0.0 W/m2
03:09 7.4 °C -6.3 °C 1025.6 hPa North 7.9 km/h 12.9 km/h 37% 0 mm 0.0 W/m2
03:14 7.3 °C -6.4 °C 1025.6 hPa Calm   6.4 km/h 37% 0 mm 0.0 W/m2
03:19 7.3 °C -6.4 °C 1026 hPa Calm     37% 0 mm 0.0 W/m2
03:24 7.1 °C -6.6 °C 1026 hPa Calm     37% 0 mm 0.0 W/m2
03:30 7 °C -6.4 °C 1026 hPa Calm     38% 0 mm 0.0 W/m2
03:35 6.8 °C -6.5 °C 1026 hPa Calm   3.2 km/h 38% 0 mm 0.0 W/m2
03:40 6.9 °C -6.4 °C 1026 hPa Calm     38% 0 mm 0.0 W/m2
03:46 6.9 °C -6.4 °C 1026 hPa North 6.4 km/h 9.7 km/h 38% 0 mm 0.0 W/m2
03:55 6.9 °C -6.4 °C 1026 hPa North 1.4 km/h 8 km/h 38% 0 mm 0.0 W/m2
04:05 7.1 °C -6.3 °C 1026.3 hPa North 7.9 km/h 12.9 km/h 38% 0 mm 0.0 W/m2
04:10 7.1 °C -6.3 °C 1026.3 hPa North 7.9 km/h 12.9 km/h 38% 0 mm 0.0 W/m2
04:16 7.1 °C -6.3 °C 1026.3 hPa North 9.7 km/h 11.3 km/h 38% 0 mm 0.0 W/m2
04:21 7.1 °C -6.3 °C 1026 hPa North 11.1 km/h 12.9 km/h 38% 0 mm 0.0 W/m2
04:26 6.9 °C -6.4 °C 1026 hPa North 7.9 km/h 11.3 km/h 38% 0 mm 0.0 W/m2
04:31 6.3 °C -6.6 °C 1026.3 hPa North 7.9 km/h 11.3 km/h 39% 0 mm 0.0 W/m2
04:36 5.9 °C -6.7 °C 1026.3 hPa North 3.2 km/h 11.3 km/h 40% 0 mm 0.0 W/m2
04:42 5.7 °C -6.5 °C 1026.3 hPa North 3.2 km/h 8 km/h 41% 0 mm 0.0 W/m2
04:52 5.8 °C -6.1 °C 1026.3 hPa North 6.4 km/h 14.5 km/h 42% 0 mm 0.0 W/m2
05:02 6.1 °C -6.2 °C 1026.6 hPa Calm   11.3 km/h 41% 0 mm 0.0 W/m2
05:07 5.7 °C -6.9 °C 1026.6 hPa North 7.9 km/h 9.7 km/h 40% 0 mm 0.0 W/m2
05:12 5 °C -6.9 °C 1026.6 hPa North 3.2 km/h 8 km/h 42% 0 mm 0.0 W/m2
05:22 4 °C -7.2 °C 1026.6 hPa North 11.1 km/h 14.5 km/h 44% 0 mm 0.0 W/m2
05:27 3.6 °C -6.9 °C 1026.6 hPa North 13 km/h 14.5 km/h 46% 0 mm 0.0 W/m2
05:32 3.6 °C -6.9 °C 1026.6 hPa North 9.7 km/h 11.3 km/h 46% 0 mm 0.0 W/m2
05:42 3.4 °C -6.9 °C 1027 hPa North 6.4 km/h 12.9 km/h 47% 0 mm 0.0 W/m2
05:47 3.5 °C -6.8 °C 1027 hPa North 9.7 km/h 11.3 km/h 47% 0 mm 0.0 W/m2
05:52 3.4 °C -7.1 °C 1027 hPa North 13 km/h 13 km/h 46% 0 mm 0.0 W/m2
05:57 3.2 °C -7 °C 1027 hPa North 11.1 km/h 12.9 km/h 47% 0 mm 0.0 W/m2
06:07 3.3 °C -6.9 °C 1027 hPa North 9.7 km/h 11.3 km/h 47% 0 mm 0.0 W/m2
06:18 4.1 °C -6.5 °C 1027 hPa North 7.9 km/h 12.9 km/h 46% 0 mm 0.0 W/m2
06:27 4.3 °C -6.6 °C 1027.3 hPa North 6.4 km/h 9.7 km/h 45% 0 mm 0.0 W/m2
06:33 4.2 °C -6.7 °C 1027.3 hPa North 7.9 km/h 9.7 km/h 45% 0 mm 0.0 W/m2
06:44 4.2 °C -6.4 °C 1027.3 hPa North 7.9 km/h 11.3 km/h 46% 0 mm 5.0 W/m2
06:54 4.2 °C -6.7 °C 1027.3 hPa North 9.7 km/h 11.3 km/h 45% 0 mm 11.0 W/m2
06:59 3.9 °C -6.7 °C 1027.3 hPa North 9.7 km/h 9.7 km/h 46% 0 mm 12.0 W/m2
07:06 3.9 °C -6.7 °C 1027.3 hPa North 6.4 km/h 9.7 km/h 46% 0 mm 12.0 W/m2
07:28 4.4 °C -6.2 °C 1027.3 hPa Calm   8 km/h 46% 0 mm 21.0 W/m2
07:41 6.2 °C -5.8 °C 1027.7 hPa Calm     42% 0 mm 128.0 W/m2
07:50 7.1 °C -5.6 °C 1027.7 hPa Calm     40% 0 mm 171.0 W/m2
08:25 9.5 °C -5.2 °C 1027.7 hPa Calm   9.7 km/h 35% 0 mm 267.0 W/m2
08:41 10.7 °C -4.9 °C 1028 hPa North 1.4 km/h 8 km/h 33% 0 mm 311.0 W/m2
08:56 12 °C -4.6 °C 1028 hPa Calm     31% 0 mm 353.0 W/m2
09:25 14.3 °C -4.5 °C 1028 hPa North 6.4 km/h 17.7 km/h 27% 0 mm 424.0 W/m2
09:40 14.8 °C -4 °C 1028.3 hPa Calm   20.9 km/h 27% 0 mm 461.0 W/m2
09:55 15.3 °C -4.1 °C 1028 hPa North 7.9 km/h 22.5 km/h 26% 0 mm 489.0 W/m2
10:11 15.8 °C -3.7 °C 1028 hPa North 9.7 km/h 20.9 km/h 26% 0 mm 520.0 W/m2
10:24 16.1 °C -3.9 °C 1028 hPa Calm   12.9 km/h 25% 0 mm 541.0 W/m2
10:32 16 °C -4 °C 1027.7 hPa North 13 km/h 13 km/h 25% 0 mm 557.0 W/m2
10:40 16.4 °C -4.2 °C 1027.3 hPa North 6.4 km/h 12.9 km/h 24% 0 mm 571.0 W/m2
10:46 16.6 °C -4.1 °C 1027.3 hPa North 7.9 km/h 12.9 km/h 24% 0 mm 573.0 W/m2
10:55 16.9 °C -3.8 °C 1027 hPa North 3.2 km/h 14.5 km/h 24% 0 mm 587.0 W/m2
11:01 17.3 °C -3.5 °C 1027 hPa North 7.9 km/h 20.9 km/h 24% 0 mm 594.0 W/m2
11:07 17.6 °C -3.8 °C 1027 hPa North 9.7 km/h 12.9 km/h 23% 0 mm 598.0 W/m2
11:21 17.7 °C -3.7 °C 1026.6 hPa North 9.7 km/h 20.9 km/h 23% 0 mm 606.0 W/m2
11:39 18.4 °C -3.7 °C 1026.3 hPa North 11.1 km/h 20.9 km/h 22% 0 mm 613.0 W/m2
12:31 19.1 °C -3.7 °C 1024.9 hPa North 3.2 km/h 14.5 km/h 21% 0 mm 612.0 W/m2
13:01 19.8 °C -3.8 °C 1024.3 hPa North 13 km/h 19.3 km/h 20% 0 mm 591.0 W/m2
14:52 21.3 °C -3.3 °C 1023.2 hPa North 1.4 km/h 6.4 km/h 19% 0 mm 388.0 W/m2
15:08 21.3 °C -4 °C 1023.2 hPa North 3.2 km/h 6.4 km/h 18% 0 mm 352.0 W/m2
15:23 21.5 °C -3.1 °C 1023.2 hPa Calm     19% 0 mm 308.0 W/m2
15:38 21.8 °C -3.6 °C 1023.6 hPa Calm     18% 0 mm 269.0 W/m2
16:09 22.1 °C -3.3 °C 1023.6 hPa Calm     18% 0 mm 165.0 W/m2
16:40 22.3 °C -3.9 °C 1023.9 hPa Calm     17% 0 mm 62.0 W/m2
16:54 20.8 °C -4.4 °C 1023.9 hPa Calm     18% 0 mm 21.0 W/m2
19:08 13.3 °C -4.8 °C 1024.9 hPa Calm     28% 0 mm 0.0 W/m2
19:22 12.9 °C -5.2 °C 1024.9 hPa Calm     28% 0 mm 0.0 W/m2
19:27 12.9 °C -5.2 °C 1024.9 hPa Calm     28% 0 mm 0.0 W/m2
19:43 13.3 °C -5.3 °C 1024.9 hPa Calm     27% 0 mm 0.0 W/m2
19:59 12.6 °C -5.4 °C 1025.3 hPa Calm     28% 0 mm 0.0 W/m2
20:21 12.1 °C -5.4 °C 1025.3 hPa Calm     29% 0 mm 0.0 W/m2
20:30 11.5 °C -5.9 °C 1025.3 hPa Calm     29% 0 mm 0.0 W/m2
20:45 10.7 °C -5.8 °C 1025.6 hPa Calm     31% 0 mm 0.0 W/m2
21:09 9.8 °C -5.7 °C 1025.3 hPa Calm     33% 0 mm 0.0 W/m2
21:17 9.4 °C -6.1 °C 1025.3 hPa Calm     33% 0 mm 0.0 W/m2
21:33 9.6 °C -5.9 °C 1025.6 hPa Calm     33% 0 mm 0.0 W/m2
21:48 8.9 °C -6.5 °C 1025.6 hPa Calm     33% 0 mm 0.0 W/m2
22:07 8.3 °C -6.3 °C 1025.6 hPa Calm     35% 0 mm 0.0 W/m2
22:14 8.4 °C -6.2 °C 1025.6 hPa Calm     35% 0 mm 0.0 W/m2
22:24 8.4 °C -6.6 °C 1025.6 hPa Calm     34% 0 mm 0.0 W/m2
22:38 8.3 °C -6.3 °C 1026 hPa Calm     35% 0 mm 0.0 W/m2
22:46 7.7 °C -6.1 °C 1026 hPa Calm     37% 0 mm 0.0 W/m2
23:54 5.7 °C -6.9 °C 1026 hPa Calm     40% 0 mm 0.0 W/m2
23:58 5.6 °C -6.3 °C 1026 hPa Calm     42% 0 mm 0.0 W/m2
Canyon Roadhouse, Fishriver Canyon, Namibia
Compliments of Weather Underground - 2.25 mb